Time;durP1;ratioP1;P1;durP2;ratioP2;P2;SDS_P1;SDS_P2;PMS_P1;PMS_P2;Temp;Humidity;BMP_temperature;BMP_pressure;BME280_temperature;BME280_humidity;BME280_pressure;Samples;Min_cycle;Max_cycle;Signal;HPM_P1;HPM_P2
2023/12/03 00:00:14;;;;;;;;;68.75;49.00;;;;;-143.90;100.00;76590.72;4900710;28;101976;-81
2023/12/03 00:02:42;;;;;;;;;64.50;48.25;;;;;-143.90;100.00;76588.63;4902341;28;102080;-80
2023/12/03 00:05:09;;;;;;;;;67.25;48.00;;;;;-143.90;100.00;76598.97;4900110;28;103943;-80
2023/12/03 00:07:37;;;;;;;;;65.75;47.50;;;;;-143.90;100.00;76586.56;4898005;28;102329;-79
2023/12/03 00:10:05;;;;;;;;;69.25;53.50;;;;;-143.90;100.00;76590.72;4901491;28;102471;-79
2023/12/03 00:12:31;;;;;;;;;66.25;49.00;;;;;-143.90;100.00;76582.44;4899639;28;102126;-79
2023/12/03 00:14:58;;;;;;;;;73.00;52.25;;;;;-143.90;100.00;76580.38;4900174;28;104142;-80
2023/12/03 00:17:25;;;;;;;;;65.75;52.75;;;;;-143.90;100.00;76576.22;4899851;28;102953;-79
2023/12/03 00:19:53;;;;;;;;;73.75;53.00;;;;;-143.90;100.00;76588.63;4899939;28;101959;-79
2023/12/03 00:22:20;;;;;;;;;58.00;42.00;;;;;-143.90;100.00;76578.31;4899893;28;102361;-79
2023/12/03 00:24:47;;;;;;;;;81.00;52.00;;;;;-143.90;100.00;76580.38;4912957;28;104160;-79
2023/12/03 00:27:14;;;;;;;;;80.50;57.50;;;;;-143.90;100.00;76582.44;4899938;28;102321;-78
2023/12/03 00:29:40;;;;;;;;;94.25;66.25;;;;;-143.90;100.00;76584.50;4899485;28;104216;-78
2023/12/03 00:32:07;;;;;;;;;86.00;64.75;;;;;-143.90;100.00;76574.16;4900386;28;102137;-78
2023/12/03 00:34:33;;;;;;;;;78.75;58.00;;;;;-143.90;100.00;76570.03;4902352;28;104195;-79
2023/12/03 00:37:02;;;;;;;;;84.25;62.50;;;;;-143.90;100.00;76576.22;4900049;28;102592;-79
2023/12/03 00:39:29;;;;;;;;;82.50;59.25;;;;;-143.90;100.00;76574.16;4900438;28;101989;-78
2023/12/03 00:41:55;;;;;;;;;83.00;60.75;;;;;-143.90;100.00;76590.72;4899266;28;102207;-79
2023/12/03 00:44:22;;;;;;;;;86.75;62.00;;;;;-143.90;100.00;76594.84;4909026;28;104056;-78
2023/12/03 00:46:49;;;;;;;;;90.00;67.50;;;;;-143.90;100.00;76615.53;4896937;28;102790;-79
2023/12/03 00:49:15;;;;;;;;;81.50;62.25;;;;;-143.90;100.00;76609.31;4898200;28;102485;-79
2023/12/03 00:51:42;;;;;;;;;83.25;63.00;;;;;-143.90;100.00;76611.38;4902188;28;103104;-78
2023/12/03 00:54:09;;;;;;;;;92.00;62.25;;;;;-143.90;100.00;76607.25;4898316;28;103817;-79
2023/12/03 00:56:35;;;;;;;;;97.50;73.00;;;;;-143.90;100.00;76627.94;4899511;28;102506;-77
2023/12/03 00:59:02;;;;;;;;;84.25;62.75;;;;;-143.90;100.00;76630.00;4901290;28;102153;-78
2023/12/03 01:01:28;;;;;;;;;91.50;64.00;;;;;-143.90;100.00;76634.13;4900515;28;101988;-79
2023/12/03 01:03:55;;;;;;;;;85.25;57.75;;;;;-143.90;100.00;76636.22;4896501;28;104354;-79
2023/12/03 01:06:22;;;;;;;;;79.75;64.25;;;;;-143.90;100.00;76656.88;4913071;28;103199;-80
2023/12/03 01:08:49;;;;;;;;;92.00;63.50;;;;;-143.90;100.00;76656.88;4898514;28;102135;-79
2023/12/03 01:11:16;;;;;;;;;80.50;60.75;;;;;-143.90;100.00;76663.09;4900252;28;103940;-79
2023/12/03 01:14:01;;;;;;;;;81.75;62.50;;;;;-143.90;100.00;76671.38;4899010;28;108840;-80
2023/12/03 01:16:28;;;;;;;;;82.50;62.25;;;;;-143.90;100.00;76681.72;4898909;28;102185;-78
2023/12/03 01:18:54;;;;;;;;;84.00;59.75;;;;;-143.90;100.00;76673.44;4897506;28;102034;-79
2023/12/03 01:21:21;;;;;;;;;73.25;55.75;;;;;-143.90;100.00;76671.38;4901073;28;102440;-79
2023/12/03 01:23:48;;;;;;;;;72.00;57.00;;;;;-143.90;100.00;76698.25;4899107;28;103983;-80
2023/12/03 01:26:15;;;;;;;;;68.00;50.25;;;;;-143.90;100.00;76714.78;4899126;28;102960;-78
2023/12/03 01:28:41;;;;;;;;;69.00;52.50;;;;;-143.90;100.00;76708.59;4899738;28;102888;-79
2023/12/03 01:31:08;;;;;;;;;76.00;57.75;;;;;-143.90;100.00;76716.88;4899744;28;102429;-79
2023/12/03 01:33:35;;;;;;;;;70.75;56.50;;;;;-143.90;100.00;76716.88;4892778;28;104183;-74
2023/12/03 01:36:02;;;;;;;;;43.50;20.50;;;;;-143.90;100.00;76727.22;4899826;28;102126;-80
2023/12/03 01:38:28;;;;;;;;;59.50;48.75;;;;;-143.90;100.00;76729.28;4895710;28;101947;-80
2023/12/03 01:40:55;;;;;;;;;68.25;50.75;;;;;-143.90;100.00;76739.63;4898380;28;102031;-80
2023/12/03 01:43:21;;;;;;;;;66.00;43.25;;;;;-143.90;100.00;76739.63;4897332;28;104458;-79
2023/12/03 01:45:48;;;;;;;;;53.00;44.50;;;;;-143.90;100.00;76735.47;4898184;28;102271;-78
2023/12/03 01:48:16;;;;;;;;;66.50;48.00;;;;;-143.90;100.00;76747.88;4897576;28;102898;-79
2023/12/03 01:50:43;;;;;;;;;60.25;48.25;;;;;-143.90;100.00;76760.28;4896496;28;102525;-79
2023/12/03 01:53:09;;;;;;;;;66.50;46.75;;;;;-143.90;100.00;76768.56;4896942;28;104216;-80
2023/12/03 01:55:36;;;;;;;;;51.75;39.50;;;;;-143.90;100.00;76760.28;4898289;28;102712;-77
2023/12/03 01:58:03;;;;;;;;;56.50;42.50;;;;;-143.90;100.00;76758.22;4898899;28;102102;-79
2023/12/03 02:00:32;;;;;;;;;55.25;43.25;;;;;-143.90;100.00;76758.22;4899565;28;102276;-79
2023/12/03 02:03:01;;;;;;;;;47.25;41.25;;;;;-143.90;100.00;76760.28;4909623;28;109516;-79
2023/12/03 02:05:28;;;;;;;;;56.25;47.25;;;;;-143.90;100.00;76764.44;4897243;28;102536;-78
2023/12/03 02:07:54;;;;;;;;;49.25;41.00;;;;;-143.90;100.00;76774.78;4896104;28;103243;-79
2023/12/03 02:10:21;;;;;;;;;47.75;42.75;;;;;-143.90;100.00;76772.72;4898457;28;102143;-79
2023/12/03 02:12:48;;;;;;;;;54.75;41.25;;;;;-143.90;100.00;76776.84;4897733;28;104213;-79
2023/12/03 02:15:14;;;;;;;;;60.00;43.25;;;;;-143.90;100.00;76795.47;4896695;28;102471;-78
2023/12/03 02:17:41;;;;;;;;;53.00;39.75;;;;;-143.90;100.00;76789.25;4897188;28;103098;-78
2023/12/03 02:20:09;;;;;;;;;42.75;38.25;;;;;-143.90;100.00;76799.59;4899016;28;102278;-78
2023/12/03 02:22:56;;;;;;;;;42.25;39.00;;;;;-143.90;100.00;76812.00;4897356;28;104019;-74
2023/12/03 02:25:23;;;;;;;;;33.50;31.00;;;;;-143.90;100.00;76812.00;4897603;28;102331;-79
2023/12/03 02:27:50;;;;;;;;;37.50;35.25;;;;;-143.90;100.00;76814.06;4896436;28;102985;-77
2023/12/03 02:30:16;;;;;;;;;32.50;31.00;;;;;-143.90;100.00;76814.06;4895570;28;102426;-77
2023/12/03 02:32:43;;;;;;;;;40.00;29.00;;;;;-143.90;100.00;76822.34;4895665;28;104267;-76
2023/12/03 02:35:10;;;;;;;;;41.50;30.25;;;;;-143.90;100.00;76834.75;4897742;28;102073;-76
2023/12/03 02:37:36;;;;;;;;;33.00;25.67;;;;;-143.90;100.00;76847.16;4893696;28;102358;-74
2023/12/03 02:40:04;;;;;;;;;32.33;26.33;;;;;-143.90;100.00;76840.97;4901227;28;102947;-76
2023/12/03 02:42:30;;;;;;;;;30.67;27.67;;;;;-143.90;100.00;76867.84;4895290;28;108923;-77
2023/12/03 02:44:57;;;;;;;;;36.67;30.00;;;;;-143.90;100.00;76880.25;4899317;28;103166;-78
2023/12/03 02:47:23;;;;;;;;;38.00;29.00;;;;;-143.90;100.00;76876.13;4893865;28;101992;-76
2023/12/03 02:49:50;;;;;;;;;35.00;29.25;;;;;-143.90;100.00;76871.97;4899530;28;102520;-76
2023/12/03 02:52:17;;;;;;;;;34.00;27.75;;;;;-143.90;100.00;76869.91;4896626;28;104838;-76
2023/12/03 02:54:43;;;;;;;;;30.25;25.50;;;;;-143.90;100.00;76880.25;4898766;28;103113;-76
2023/12/03 02:57:10;;;;;;;;;23.33;21.33;;;;;-143.90;100.00;76886.47;4895671;28;101870;-76
2023/12/03 02:59:36;;;;;;;;;26.33;21.00;;;;;-143.90;100.00;76878.19;4899059;28;101976;-75
2023/12/03 03:02:03;;;;;;;;;40.25;32.75;;;;;-143.90;100.00;76903.00;4900875;28;104108;-77
2023/12/03 03:04:30;;;;;;;;;21.67;19.00;;;;;-143.90;100.00;76905.06;4898061;28;102131;-76
2023/12/03 03:06:56;;;;;;;;;21.25;18.00;;;;;-143.90;100.00;76905.06;4896600;28;102445;-76
2023/12/03 03:09:23;;;;;;;;;33.00;24.00;;;;;-143.90;100.00;76917.47;4899377;28;102381;-78
2023/12/03 03:11:49;;;;;;;;;29.67;24.00;;;;;-143.90;100.00;76913.34;4900085;28;104327;-76
2023/12/03 03:14:16;;;;;;;;;27.00;18.67;;;;;-143.90;100.00;76915.41;4898492;28;107943;-77
2023/12/03 03:16:43;;;;;;;;;20.33;18.33;;;;;-143.90;100.00;76900.94;4901513;28;101965;-77
2023/12/03 03:19:09;;;;;;;;;26.33;16.67;;;;;-143.90;100.00;76925.75;4901585;28;102181;-76
2023/12/03 03:21:39;;;;;;;;;25.67;22.00;;;;;-143.90;100.00;76911.28;4900882;28;103918;-76
2023/12/03 03:24:06;;;;;;;;;36.00;26.67;;;;;-143.90;100.00;76921.63;4901267;28;102240;-76
2023/12/03 03:26:33;;;;;;;;;30.25;25.75;;;;;-143.90;100.00;76921.63;4903632;28;102182;-77
2023/12/03 03:29:00;;;;;;;;;38.33;25.67;;;;;-143.90;100.00;76942.31;4901733;28;101972;-77
2023/12/03 03:31:26;;;;;;;;;31.50;23.75;;;;;-143.90;100.00;76942.31;4900225;28;104289;-77
2023/12/03 03:33:54;;;;;;;;;29.33;22.67;;;;;-143.90;100.00;76934.03;4901068;28;102371;-78
2023/12/03 03:36:21;;;;;;;;;27.33;19.00;;;;;-143.90;100.00;76934.03;4901036;28;102034;-77
2023/12/03 03:38:48;;;;;;;;;30.00;24.67;;;;;-143.90;100.00;76942.31;4899242;28;102007;-77
2023/12/03 03:41:15;;;;;;;;;28.67;17.67;;;;;-143.90;100.00;76952.66;4900465;28;104240;-76
2023/12/03 03:43:42;;;;;;;;;34.50;26.00;;;;;-143.90;100.00;76958.84;4899727;28;102639;-77
2023/12/03 03:46:11;;;;;;;;;28.33;21.67;;;;;-143.90;100.00;76952.66;4899617;28;101970;-77
2023/12/03 03:48:38;;;;;;;;;27.00;21.67;;;;;-143.90;100.00;76946.44;4898792;28;102676;-76
2023/12/03 03:51:08;;;;;;;;;30.25;24.75;;;;;-143.90;100.00;76958.84;4902817;28;104033;-76
2023/12/03 03:53:35;;;;;;;;;29.75;26.00;;;;;-143.90;100.00;76956.78;4900938;28;102307;-76
2023/12/03 03:56:08;;;;;;;;;31.25;26.00;;;;;-143.90;100.00;76963.00;4900874;28;102940;-77
2023/12/03 03:58:38;;;;;;;;;27.25;24.00;;;;;-143.90;100.00;76963.00;4902647;28;101924;-76
2023/12/03 04:01:07;;;;;;;;;27.33;23.33;;;;;-143.90;100.00;76954.72;4899271;28;108942;-75
2023/12/03 04:03:34;;;;;;;;;40.00;24.00;;;;;-143.90;100.00;76952.66;4901978;28;102313;-75
2023/12/03 04:06:03;;;;;;;;;24.33;21.00;;;;;-143.90;100.00;76960.91;4899341;28;102414;-75
2023/12/03 04:08:30;;;;;;;;;28.25;25.00;;;;;-143.90;100.00;76963.00;4900217;28;102044;-75
2023/12/03 04:10:57;;;;;;;;;35.33;24.33;;;;;-143.90;100.00;76975.41;4898247;28;104222;-76
2023/12/03 04:13:24;;;;;;;;;23.33;22.00;;;;;-143.90;100.00;76971.25;4901662;28;103061;-75
2023/12/03 04:15:51;;;;;;;;;19.67;18.33;;;;;-143.90;100.00;76963.00;4898436;28;102962;-76
2023/12/03 04:18:18;;;;;;;;;22.00;12.00;;;;;-143.90;100.00;76956.78;4899199;28;101921;-75
2023/12/03 04:20:45;;;;;;;;;20.33;16.00;;;;;-143.90;100.00;76950.56;4899683;28;103988;-78
2023/12/03 04:23:11;;;;;;;;;13.00;8.33;;;;;-143.90;100.00;76946.44;4899501;28;102941;-77
2023/12/03 04:25:38;;;;;;;;;16.00;12.00;;;;;-143.90;100.00;76944.38;4899714;28;101995;-75
2023/12/03 04:28:05;;;;;;;;;12.00;7.00;;;;;-143.90;100.00;76946.44;4903119;28;103356;-76
2023/12/03 04:30:32;;;;;;;;;10.67;10.00;;;;;-143.90;100.00;76936.09;4899999;28;109626;-75
2023/12/03 04:32:58;;;;;;;;;14.00;8.33;;;;;-143.90;100.00;76936.09;4900515;28;102132;-76
2023/12/03 04:35:25;;;;;;;;;18.00;14.33;;;;;-143.90;100.00;76950.56;4898322;28;102137;-77
2023/12/03 04:37:52;;;;;;;;;17.33;14.33;;;;;-143.90;100.00;76938.16;4898278;28;102952;-76
2023/12/03 04:40:19;;;;;;;;;10.00;9.00;;;;;-143.90;100.00;76940.25;4900154;28;104106;-76
2023/12/03 04:42:46;;;;;;;;;16.67;13.00;;;;;-143.90;100.00;76948.50;4899952;28;102504;-76
2023/12/03 04:45:13;;;;;;;;;9.00;9.00;;;;;-143.90;100.00;76946.44;4900744;28;102070;-76
2023/12/03 04:47:39;;;;;;;;;12.00;10.00;;;;;-143.90;100.00;76946.44;4901926;28;102036;-76
2023/12/03 04:50:07;;;;;;;;;4.00;4.00;;;;;-143.90;100.00;76944.38;4901386;28;104000;-76
2023/12/03 04:52:33;;;;;;;;;16.33;13.33;;;;;-143.90;100.00;76946.44;4894864;28;102354;-76
2023/12/03 04:55:00;;;;;;;;;12.67;9.33;;;;;-143.90;100.00;76946.44;4897927;28;101961;-77
2023/12/03 04:57:26;;;;;;;;;13.00;10.00;;;;;-143.90;100.00;76942.31;4901437;28;102258;-76
2023/12/03 04:59:53;;;;;;;;;6.33;3.33;;;;;-143.90;100.00;76946.44;4899159;28;104230;-76
2023/12/03 05:02:19;;;;;;;;;11.00;6.33;;;;;-143.90;100.00;76942.31;4897073;28;102208;-75
2023/12/03 05:04:46;;;;;;;;;6.00;6.00;;;;;-143.90;100.00;76936.09;4899489;28;102995;-76
2023/12/03 05:07:13;;;;;;;;;6.33;6.00;;;;;-143.90;100.00;76950.56;4898816;28;102058;-76
2023/12/03 05:09:39;;;;;;;;;11.00;8.00;;;;;-143.90;100.00;76950.56;4897872;28;104192;-75
2023/12/03 05:12:06;;;;;;;;;10.67;9.67;;;;;-143.90;100.00;76948.50;4899653;28;102658;-75
2023/12/03 05:14:33;;;;;;;;;11.33;9.00;;;;;-143.90;100.00;76950.56;4901686;28;102047;-78
2023/12/03 05:17:00;;;;;;;;;4.67;3.00;;;;;-143.90;100.00;76952.66;4896391;28;102264;-78
2023/12/03 05:19:26;;;;;;;;;15.67;11.33;;;;;-143.90;100.00;76967.13;4899221;28;104385;-78
2023/12/03 05:21:54;;;;;;;;;13.00;12.00;;;;;-143.90;100.00;76967.13;4898982;28;102047;-75
2023/12/03 05:24:21;;;;;;;;;9.00;8.33;;;;;-143.90;100.00;76958.84;4898914;28;102406;-78
2023/12/03 05:26:47;;;;;;;;;13.67;10.33;;;;;-143.90;100.00;76963.00;4900088;28;102709;-78
2023/12/03 05:29:14;;;;;;;;;12.67;10.67;;;;;-143.90;100.00;76971.25;4899399;28;104031;-75
2023/12/03 05:31:47;;;;;;;;;17.33;12.33;;;;;-143.90;100.00;76977.47;4899548;28;102099;-77
2023/12/03 05:34:13;;;;;;;;;16.67;15.33;;;;;-143.90;100.00;76985.75;4899630;28;102233;-77
2023/12/03 05:36:40;;;;;;;;;18.00;12.67;;;;;-143.90;100.00;76983.66;4900960;28;103290;-78
2023/12/03 05:39:07;;;;;;;;;12.67;9.67;;;;;-143.90;100.00;76991.94;4899041;28;104173;-76
2023/12/03 05:41:39;;;;;;;;;18.00;12.33;;;;;-143.90;100.00;76987.81;4900292;28;103506;-77
2023/12/03 05:44:06;;;;;;;;;10.00;9.00;;;;;-143.90;100.00;76983.66;4895969;28;102162;-77
2023/12/03 05:46:39;;;;;;;;;10.67;9.00;;;;;-143.90;100.00;76985.75;4900835;28;102279;-77
2023/12/03 05:49:06;;;;;;;;;15.67;7.67;;;;;-143.90;100.00;76987.81;4895599;28;109041;-77
2023/12/03 05:51:34;;;;;;;;;9.00;9.00;;;;;-143.90;100.00;76991.94;4899777;28;105439;-77
2023/12/03 05:54:00;;;;;;;;;12.00;10.00;;;;;-143.90;100.00;76994.00;4899445;28;101901;-77
2023/12/03 05:56:27;;;;;;;;;9.33;9.00;;;;;-143.90;100.00;76985.75;4900791;28;102421;-77
2023/12/03 05:58:54;;;;;;;;;15.00;13.00;;;;;-143.90;100.00;76985.75;4899176;28;104020;-77
2023/12/03 06:01:23;;;;;;;;;12.67;11.33;;;;;-143.90;100.00;76991.94;4899869;28;102468;-78
2023/12/03 06:03:49;;;;;;;;;15.00;12.67;;;;;-143.90;100.00;76991.94;4898773;28;102134;-77
2023/12/03 06:06:17;;;;;;;;;10.00;9.67;;;;;-143.90;100.00;77000.22;4897199;28;102328;-78
2023/12/03 06:08:44;;;;;;;;;12.00;10.00;;;;;-143.90;100.00;76998.16;4897671;28;103563;-77
2023/12/03 06:11:11;;;;;;;;;9.00;9.00;;;;;-143.90;100.00;77006.41;4896398;28;102352;-77
2023/12/03 06:13:37;;;;;;;;;15.00;12.00;;;;;-143.90;100.00;77004.34;4899978;28;102310;-77
2023/12/03 06:16:04;;;;;;;;;17.00;15.33;;;;;-143.90;100.00;77010.56;4902691;28;102079;-78
2023/12/03 06:18:31;;;;;;;;;13.67;9.67;;;;;-143.90;100.00;77006.41;4896096;28;108791;-76
2023/12/03 06:20:58;;;;;;;;;22.67;15.67;;;;;-143.90;100.00;77012.63;4898506;28;102275;-78
2023/12/03 06:23:24;;;;;;;;;15.00;12.33;;;;;-143.90;100.00;77014.69;4899336;28;101978;-78
2023/12/03 06:25:51;;;;;;;;;15.67;13.67;;;;;-143.90;100.00;77020.91;4901148;28;102056;-77
2023/12/03 06:28:17;;;;;;;;;12.67;9.33;;;;;-143.90;100.00;77016.75;4895686;28;104255;-78
2023/12/03 06:30:44;;;;;;;;;9.00;7.67;;;;;-143.90;100.00;77012.63;4898452;28;102734;-77
2023/12/03 06:33:11;;;;;;;;;12.33;9.00;;;;;-143.90;100.00;77016.75;4897787;28;102254;-77
2023/12/03 06:35:38;;;;;;;;;17.33;15.00;;;;;-143.90;100.00;77016.75;4898171;28;102287;-77
2023/12/03 06:38:05;;;;;;;;;16.67;12.00;;;;;-143.90;100.00;77016.75;4898471;28;104202;-77
2023/12/03 06:40:33;;;;;;;;;16.67;15.33;;;;;-143.90;100.00;77012.63;4898770;28;102307;-77
2023/12/03 06:43:00;;;;;;;;;13.00;13.00;;;;;-143.90;100.00;77014.69;4897872;28;101969;-77
2023/12/03 06:45:27;;;;;;;;;12.00;11.67;;;;;-143.90;100.00;77012.63;4898642;28;107326;-77
2023/12/03 06:47:53;;;;;;;;;15.67;15.00;;;;;-143.90;100.00;77016.75;4902134;28;104301;-78
2023/12/03 06:50:20;;;;;;;;;16.67;13.67;;;;;-143.90;100.00;77022.97;4900978;28;102876;-78
2023/12/03 06:52:47;;;;;;;;;17.00;14.33;;;;;-143.90;100.00;77016.75;4901981;28;101944;-77
2023/12/03 06:55:13;;;;;;;;;15.00;12.00;;;;;-143.90;100.00;77010.56;4907220;28;102428;-77
2023/12/03 06:57:40;;;;;;;;;10.67;8.33;;;;;-143.90;100.00;77010.56;4901172;28;104207;-77
2023/12/03 07:00:08;;;;;;;;;6.00;6.00;;;;;-143.90;100.00;77004.34;4903358;28;102464;-77
2023/12/03 07:02:36;;;;;;;;;12.33;7.00;;;;;-143.90;100.00;77012.63;4903566;28;102172;-77
2023/12/03 07:05:04;;;;;;;;;9.67;7.33;;;;;-143.90;100.00;77002.28;4902990;28;102416;-77
2023/12/03 07:07:30;;;;;;;;;11.33;8.67;;;;;-143.90;100.00;77002.28;4897235;28;104208;-75
2023/12/03 07:09:57;;;;;;;;;16.67;10.00;;;;;-143.90;100.00;77004.34;4895844;28;103300;-75
2023/12/03 07:12:24;;;;;;;;;19.67;11.33;;;;;-143.90;100.00;77002.28;4900944;28;102415;-76
2023/12/03 07:14:50;;;;;;;;;16.33;14.33;;;;;-143.90;100.00;77012.63;4902246;28;102246;-78
2023/12/03 07:17:17;;;;;;;;;20.00;13.00;;;;;-143.90;100.00;77010.56;4901134;28;105442;-75
2023/12/03 07:19:45;;;;;;;;;13.33;10.67;;;;;-143.90;100.00;77016.75;4901411;28;102315;-76
2023/12/03 07:22:11;;;;;;;;;11.33;10.00;;;;;-143.90;100.00;77012.63;4901077;28;102251;-76
2023/12/03 07:24:39;;;;;;;;;12.00;9.67;;;;;-143.90;100.00;77008.50;4901400;28;103533;-76
2023/12/03 07:27:06;;;;;;;;;14.33;10.00;;;;;-143.90;100.00;77010.56;4902883;28;104457;-72
2023/12/03 07:29:32;;;;;;;;;13.00;10.33;;;;;-143.90;100.00;77008.50;4901464;28;102383;-76
2023/12/03 07:31:59;;;;;;;;;14.33;11.33;;;;;-143.90;100.00;77008.50;4901013;28;102047;-78
2023/12/03 07:34:26;;;;;;;;;9.33;7.33;;;;;-143.90;100.00;76998.16;4902543;28;101910;-77
2023/12/03 07:36:53;;;;;;;;;14.00;11.00;;;;;-143.90;100.00;77000.22;4900665;28;104055;-77
2023/12/03 07:39:20;;;;;;;;;13.00;12.67;;;;;-143.90;100.00;77000.22;4901630;28;102295;-77
2023/12/03 07:41:50;;;;;;;;;18.67;14.00;;;;;-143.90;100.00;76991.94;4899796;28;102169;-77
2023/12/03 07:44:17;;;;;;;;;20.67;16.00;;;;;-143.90;100.00;76991.94;4901620;28;102044;-77
2023/12/03 07:46:44;;;;;;;;;20.33;15.33;;;;;-143.90;100.00;76983.66;4900691;28;104339;-77
2023/12/03 07:49:10;;;;;;;;;13.00;10.00;;;;;-143.90;100.00;76979.53;4900612;28;102223;-76
2023/12/03 07:51:37;;;;;;;;;13.00;10.67;;;;;-143.90;100.00;76975.41;4899154;28;102251;-74
2023/12/03 07:54:04;;;;;;;;;5.33;4.00;;;;;-143.90;100.00;76971.25;4902241;28;102769;-77
2023/12/03 07:56:35;;;;;;;;;12.33;10.67;;;;;-143.90;100.00;76967.13;4900795;28;104179;-77
2023/12/03 07:59:02;;;;;;;;;16.00;13.33;;;;;-143.90;100.00;76983.66;4898917;28;102066;-78
2023/12/03 08:01:29;;;;;;;;;14.00;11.33;;;;;-143.90;100.00;76971.25;4901403;28;102359;-77
2023/12/03 08:03:57;;;;;;;;;18.33;12.00;;;;;-143.90;100.00;76969.19;4899780;28;101863;-76
2023/12/03 08:06:24;;;;;;;;;14.00;10.33;;;;;-143.90;100.00;76963.00;4897728;28;104136;-78
2023/12/03 08:08:52;;;;;;;;;11.33;10.67;;;;;-143.90;100.00;76963.00;4897858;28;102385;-76
2023/12/03 08:11:22;;;;;;;;;16.33;14.00;;;;;-143.90;100.00;76963.00;4900192;28;101961;-76
2023/12/03 08:13:49;;;;;;;;;17.67;16.00;;;;;-143.90;100.00;76960.91;4902016;28;102223;-78
2023/12/03 08:16:16;;;;;;;;;19.67;14.33;;;;;-143.90;100.00;76954.72;4900308;28;104165;-76
2023/12/03 08:18:43;;;;;;;;;15.67;14.00;;;;;-143.90;100.00;76954.72;4907109;28;102140;-77
2023/12/03 08:21:14;;;;;;;;;18.33;15.33;;;;;-143.90;100.00;76958.84;4900306;28;102322;-77
2023/12/03 08:23:41;;;;;;;;;11.00;10.00;;;;;-143.90;100.00;76950.56;4900196;28;102170;-76
2023/12/03 08:26:08;;;;;;;;;11.67;11.67;;;;;-143.90;100.00;76934.03;4898075;28;104113;-75
2023/12/03 08:28:39;;;;;;;;;10.33;8.33;;;;;-143.90;100.00;76934.03;4916636;28;105036;-76
2023/12/03 08:31:05;;;;;;;;;17.33;11.67;;;;;-143.90;100.00;76944.38;4866815;28;102309;-77
2023/12/03 08:33:35;;;;;;;;;14.67;13.00;;;;;-143.90;100.00;76952.66;4914774;28;103100;-77
2023/12/03 08:36:06;;;;;;;;;16.33;13.33;;;;;-143.90;100.00;76952.66;4900382;28;108795;-77
2023/12/03 08:38:36;;;;;;;;;19.33;14.67;;;;;-143.90;100.00;76950.56;4900927;28;102236;-76
2023/12/03 08:41:03;;;;;;;;;13.67;13.00;;;;;-143.90;100.00;76952.66;4899734;28;102060;-76
2023/12/03 08:43:32;;;;;;;;;20.00;14.00;;;;;-143.90;100.00;76948.50;4899976;28;102342;-79
2023/12/03 08:45:59;;;;;;;;;18.67;16.33;;;;;-143.90;100.00;76942.31;4899676;28;104099;-78
2023/12/03 08:48:26;;;;;;;;;22.33;18.33;;;;;-143.90;100.00;76942.31;3653647;28;10061724;-77
2023/12/03 08:50:53;;;;;;;;;18.00;14.00;;;;;-143.90;100.00;76938.16;4902758;28;102466;-78
2023/12/03 08:53:20;;;;;;;;;17.67;16.67;;;;;-143.90;100.00;76938.16;4895436;28;104066;-78
2023/12/03 08:55:48;;;;;;;;;36.67;28.67;;;;;-143.90;100.00;76973.31;4913637;28;102464;-78
2023/12/03 08:58:15;;;;;;;;;32.67;20.33;;;;;-143.90;100.00;76952.66;4898795;28;101930;-78
2023/12/03 09:00:42;;;;;;;;;32.33;26.33;;;;;-143.90;100.00;76938.16;4897484;28;102073;-78
2023/12/03 09:03:08;;;;;;;;;36.33;30.00;;;;;-143.90;100.00;76942.31;4900211;28;104100;-78
2023/12/03 09:05:35;;;;;;;;;37.67;33.67;;;;;-143.90;100.00;76952.66;4900280;28;102247;-77
2023/12/03 09:08:03;;;;;;;;;44.00;35.33;;;;;-143.90;100.00;76954.72;4896747;28;103823;-78
2023/12/03 09:10:30;;;;;;;;;38.67;31.00;;;;;-143.90;100.00;76950.56;4899154;28;102246;-78
2023/12/03 09:12:58;;;;;;;;;29.00;21.00;;;;;-143.90;100.00;76921.63;4899052;28;104304;-78
2023/12/03 09:15:25;;;;;;;;;35.33;28.67;;;;;-143.90;100.00;76938.16;4897478;28;102924;-78
2023/12/03 09:17:52;;;;;;;;;38.00;31.33;;;;;-143.90;100.00;76971.25;4897836;28;101983;-77
2023/12/03 09:20:23;;;;;;;;;19.67;17.00;;;;;-143.90;100.00;76954.72;4900561;28;102270;-79
2023/12/03 09:22:50;;;;;;;;;28.67;22.67;;;;;-143.90;100.00;76913.34;4898473;28;104101;-78
2023/12/03 09:25:17;;;;;;;;;17.67;14.67;;;;;-143.90;100.00;76880.25;4912110;28;102320;-78
2023/12/03 09:27:47;;;;;;;;;25.67;17.33;;;;;-143.90;100.00;76869.91;4898213;28;102980;-77
2023/12/03 09:30:14;;;;;;;;;33.33;24.33;;;;;-143.90;100.00;76905.06;4901125;28;102433;-77
2023/12/03 09:32:41;;;;;;;;;36.67;27.00;;;;;-143.90;100.00;76950.56;4899126;28;108526;-79
2023/12/03 09:35:12;;;;;;;;;35.00;24.33;;;;;-143.90;100.00;76948.50;4898149;28;102259;-79
2023/12/03 09:37:39;;;;;;;;;30.67;28.33;;;;;-143.90;100.00;76929.91;4897990;28;102505;-79
2023/12/03 09:40:07;;;;;;;;;29.00;25.67;;;;;-143.90;100.00;77006.41;4900664;28;102345;-79
2023/12/03 09:42:36;;;;;;;;;28.00;24.67;;;;;-143.90;100.00;76969.19;4898775;28;103232;-79
2023/12/03 09:45:06;;;;;;;;;25.33;22.00;;;;;-143.90;100.00;76971.25;4898232;28;102901;-79
2023/12/03 09:47:37;;;;;;;;;25.00;23.00;;;;;-143.90;100.00;76958.84;4898785;28;102403;-80
2023/12/03 09:50:05;;;;;;;;;33.00;29.00;;;;;-143.90;100.00;76979.53;4899082;28;102317;-79
2023/12/03 09:52:35;;;;;;;;;29.67;27.33;;;;;-143.90;100.00;77002.28;4898395;28;103531;-79
2023/12/03 09:55:03;;;;;;;;;35.00;26.33;;;;;-143.90;100.00;77006.41;4899129;28;102434;-79
2023/12/03 09:57:41;;;;;;;;;32.00;28.67;;;;;-143.90;100.00;77012.63;4899175;28;102190;-79
2023/12/03 10:00:10;;;;;;;;;35.67;30.33;;;;;-143.90;100.00;77029.19;4898684;28;102329;-79
2023/12/03 10:02:39;;;;;;;;;34.33;26.33;;;;;-143.90;100.00;77006.41;4895948;28;104229;-77
2023/12/03 10:05:10;;;;;;;;;34.67;29.00;;;;;-143.90;100.00;76971.25;4897638;28;102116;-78
2023/12/03 10:07:39;;;;;;;;;33.67;28.00;;;;;-143.90;100.00;76971.25;4898457;28;102393;-78
2023/12/03 10:10:10;;;;;;;;;36.33;32.33;;;;;-143.90;100.00;76946.44;4899030;28;102088;-78
2023/12/03 10:12:41;;;;;;;;;43.00;31.00;;;;;-143.90;100.00;76996.09;4896632;28;103107;-78
2023/12/03 10:15:11;;;;;;;;;32.67;27.33;;;;;-143.90;100.00;76985.75;4894349;28;102772;-79
2023/12/03 10:17:38;;;;;;;;;28.67;27.00;;;;;-143.90;100.00;77012.63;4894605;28;102587;-79
2023/12/03 10:20:27;;;;;;;;;30.00;26.33;;;;;-143.90;100.00;77004.34;4897561;28;103743;-78
2023/12/03 10:22:58;;;;;;;;;30.00;26.33;;;;;-143.90;100.00;77020.91;4900665;28;108813;-79
2023/12/03 10:25:31;;;;;;;;;31.00;27.00;;;;;-143.90;100.00;77000.22;4900257;28;102431;-78
2023/12/03 10:28:00;;;;;;;;;31.33;24.33;;;;;-143.90;100.00;76963.00;4899713;28;102312;-79
2023/12/03 10:30:29;;;;;;;;;33.67;26.33;;;;;-143.90;100.00;77029.19;4900350;28;101956;-78
2023/12/03 10:32:57;;;;;;;;;29.67;26.00;;;;;-143.90;100.00;77033.31;4914092;28;104107;-76
2023/12/03 10:35:30;;;;;;;;;27.00;21.00;;;;;-143.90;100.00;77025.03;4900543;28;103080;-77
2023/12/03 10:37:57;;;;;;;;;29.33;25.33;;;;;-143.90;100.00;77041.59;4901790;28;102454;-77
2023/12/03 10:40:26;;;;;;;;;39.00;29.67;;;;;-143.90;100.00;77037.44;4896991;28;104843;-77
2023/12/03 10:43:01;;;;;;;;;30.67;27.00;;;;;-143.90;100.00;77016.75;4899274;28;104131;-78
2023/12/03 10:45:30;;;;;;;;;27.00;23.00;;;;;-143.90;100.00;77002.28;4889928;28;102707;-78
2023/12/03 10:48:02;;;;;;;;;33.00;28.33;;;;;-143.90;100.00;77016.75;4899625;28;103019;-77